Listerhav — ZDKC7 — position and weather

sailwx.info

Track history (hours):
 
Tides and Currents Weather Stations Pressure Air Temp Water Temp Dewpoint Dewpoint Depression Visibility Wind Speed Wind Dir Waves Ship Positions

Listerhav

Last reported at 2014-Aug-27 10:33 UTC. Time now 2014-Aug-27 11:09 UTC.
Position N 54°09' E 012°07'.

Length 88 m; draft 5.9 m.

Type: Cargo ship. MMSI: 236591000.

Date/timePositionNaut miles runAvg speedWind from/ knotsBaromVisibWave heightAir tempDewpointWater temp
2014-Aug-27 10:33N 54°09' E 012°07'0 0.0
2014-Aug-27 09:27N 54°09' E 012°07'0 0.0
2014-Aug-27 08:30N 54°09' E 012°07'0 0.0
2014-Aug-27 07:30N 54°09' E 012°07'0 0.0
2014-Aug-27 06:06N 54°09' E 012°07'0 0.0
2014-Aug-27 05:33N 54°09' E 012°07'0 0.0
2014-Aug-27 04:15N 54°09' E 012°07'0 0.0
2014-Aug-27 03:33N 54°09' E 012°07'0 0.0
2014-Aug-27 02:33N 54°09' E 012°07'0 0.0
2014-Aug-27 01:33N 54°09' E 012°07'0 0.0
2014-Aug-27 00:33N 54°09' E 012°07'0 0.0
2014-Aug-26 23:33N 54°09' E 012°07'0 0.0
2014-Aug-26 22:33N 54°09' E 012°07'0 0.0
2014-Aug-26 21:33N 54°09' E 012°07'0 0.0
2014-Aug-26 20:30N 54°09' E 012°07'0 0.0
2014-Aug-26 19:30N 54°09' E 012°07'0 0.0
2014-Aug-26 18:32N 54°09' E 012°07'0 0.0
2014-Aug-26 17:11N 54°09' E 012°07'0 0.0
2014-Aug-26 15:26N 54°09' E 012°07'0 0.0
2014-Aug-26 14:32N 54°09' E 012°07'0 0.0
2014-Aug-26 13:32N 54°09' E 012°07'0 0.0
2014-Aug-26 12:32N 54°09' E 012°07'0 0.0
2014-Aug-26 11:20N 54°09' E 012°07'0 0.0
2014-Aug-26 10:14N 54°09' E 012°07'0 0.0
2014-Aug-26 09:29N 54°09' E 012°07'0 0.0
2014-Aug-26 07:29N 54°09' E 012°07'0 0.0
2014-Aug-26 06:32N 54°09' E 012°07'0 0.0
2014-Aug-26 05:32N 54°09' E 012°07'0 0.0
2014-Aug-26 04:32N 54°09' E 012°07'0 0.0
2014-Aug-26 03:29N 54°09' E 012°07'0 0.0
2014-Aug-26 02:29N 54°09' E 012°07'0 0.0
2014-Aug-26 00:32N 54°09' E 012°07'0 0.0
2014-Aug-25 23:29N 54°09' E 012°07'0 0.0
2014-Aug-25 21:32N 54°09' E 012°07'0 0.0
2014-Aug-25 18:23N 54°09' E 012°07'0 0.0
2014-Aug-25 17:23N 54°09' E 012°07'0 0.0
2014-Aug-25 16:14N 54°09' E 012°07'0 0.0
2014-Aug-25 15:14N 54°09' E 012°07'0 0.0
2014-Aug-25 14:32N 54°09' E 012°07'1 1.1
2014-Aug-25 13:33N 54°10' E 012°06'3 3.0
2014-Aug-25 12:34N 54°12' E 012°04'7 6.8
2014-Aug-25 11:33N 54°19' E 012°03'7 7.4
2014-Aug-25 10:33N 54°26' E 012°09'7 7.4
2014-Aug-25 09:33N 54°33' E 012°13'7 6.9
2014-Aug-25 08:33N 54°38' E 012°20'8 7.6
2014-Aug-25 07:32N 54°43' E 012°31'8 7.8
2014-Aug-25 06:33N 54°47' E 012°42'8 7.8
2014-Aug-25 05:33N 54°50' E 012°55'8 8.4
2014-Aug-25 04:33N 54°53' E 013°08'16 7.7
2014-Aug-25 02:32N 54°58' E 013°34'24 7.1
2014-Aug-24 23:07N 55°10' E 014°11'4 7.2
2014-Aug-24 22:30N 55°13' E 014°16'7 7.6
2014-Aug-24 21:31N 55°19' E 014°24'8 8.4
2014-Aug-24 20:33N 55°25' E 014°33'  
2014-Aug-20 17:11N 55°59' E 016°28'6 8.9
2014-Aug-20 16:34N 55°59' E 016°18'9 9.2
2014-Aug-20 15:34N 55°59' E 016°01'9 9.5
2014-Aug-20 14:34N 55°60' E 015°44'1010.0
2014-Aug-20 13:34N 56°02' E 015°27'10 9.9
2014-Aug-20 12:34N 56°04' E 015°10'  
Track history (hours):
 
Tides and Currents Weather Stations Pressure Air Temp Water Temp Dewpoint Dewpoint Depression Visibility Wind Speed Wind Dir Waves Ship Positions

Listerhav

Last reported at 2014-Aug-27 10:33 UTC. Time now 2014-Aug-27 11:09 UTC.
Position N 54°09' E 012°07'.

Length 88 m; draft 5.9 m.

Type: Cargo ship. MMSI: 236591000.

Date/timePositionNaut miles runAvg speedWind from/ knotsBaromVisibWave heightAir tempDewpointWater temp
2014-Aug-27 10:33N 54°09' E 012°07'0 0.0
2014-Aug-27 09:27N 54°09' E 012°07'0 0.0
2014-Aug-27 08:30N 54°09' E 012°07'0 0.0
2014-Aug-27 07:30N 54°09' E 012°07'0 0.0
2014-Aug-27 06:06N 54°09' E 012°07'0 0.0
2014-Aug-27 05:33N 54°09' E 012°07'0 0.0
2014-Aug-27 04:15N 54°09' E 012°07'0 0.0
2014-Aug-27 03:33N 54°09' E 012°07'0 0.0
2014-Aug-27 02:33N 54°09' E 012°07'0 0.0
2014-Aug-27 01:33N 54°09' E 012°07'0 0.0
2014-Aug-27 00:33N 54°09' E 012°07'0 0.0
2014-Aug-26 23:33N 54°09' E 012°07'0 0.0
2014-Aug-26 22:33N 54°09' E 012°07'0 0.0
2014-Aug-26 21:33N 54°09' E 012°07'0 0.0
2014-Aug-26 20:30N 54°09' E 012°07'0 0.0
2014-Aug-26 19:30N 54°09' E 012°07'0 0.0
2014-Aug-26 18:32N 54°09' E 012°07'0 0.0
2014-Aug-26 17:11N 54°09' E 012°07'0 0.0
2014-Aug-26 15:26N 54°09' E 012°07'0 0.0
2014-Aug-26 14:32N 54°09' E 012°07'0 0.0
2014-Aug-26 13:32N 54°09' E 012°07'0 0.0
2014-Aug-26 12:32N 54°09' E 012°07'0 0.0
2014-Aug-26 11:20N 54°09' E 012°07'0 0.0
2014-Aug-26 10:14N 54°09' E 012°07'0 0.0
2014-Aug-26 09:29N 54°09' E 012°07'0 0.0
2014-Aug-26 07:29N 54°09' E 012°07'0 0.0
2014-Aug-26 06:32N 54°09' E 012°07'0 0.0
2014-Aug-26 05:32N 54°09' E 012°07'0 0.0
2014-Aug-26 04:32N 54°09' E 012°07'0 0.0
2014-Aug-26 03:29N 54°09' E 012°07'0 0.0
2014-Aug-26 02:29N 54°09' E 012°07'0 0.0
2014-Aug-26 00:32N 54°09' E 012°07'0 0.0
2014-Aug-25 23:29N 54°09' E 012°07'0 0.0
2014-Aug-25 21:32N 54°09' E 012°07'0 0.0
2014-Aug-25 18:23N 54°09' E 012°07'0 0.0
2014-Aug-25 17:23N 54°09' E 012°07'0 0.0
2014-Aug-25 16:14N 54°09' E 012°07'0 0.0
2014-Aug-25 15:14N 54°09' E 012°07'0 0.0
2014-Aug-25 14:32N 54°09' E 012°07'1 1.1
2014-Aug-25 13:33N 54°10' E 012°06'3 3.0
2014-Aug-25 12:34N 54°12' E 012°04'7 6.8
2014-Aug-25 11:33N 54°19' E 012°03'7 7.4
2014-Aug-25 10:33N 54°26' E 012°09'7 7.4
2014-Aug-25 09:33N 54°33' E 012°13'7 6.9
2014-Aug-25 08:33N 54°38' E 012°20'8 7.6
2014-Aug-25 07:32N 54°43' E 012°31'8 7.8
2014-Aug-25 06:33N 54°47' E 012°42'8 7.8
2014-Aug-25 05:33N 54°50' E 012°55'8 8.4
2014-Aug-25 04:33N 54°53' E 013°08'16 7.7
2014-Aug-25 02:32N 54°58' E 013°34'24 7.1
2014-Aug-24 23:07N 55°10' E 014°11'4 7.2
2014-Aug-24 22:30N 55°13' E 014°16'7 7.6
2014-Aug-24 21:31N 55°19' E 014°24'8 8.4
2014-Aug-24 20:33N 55°25' E 014°33'  
2014-Aug-20 17:11N 55°59' E 016°28'6 8.9
2014-Aug-20 16:34N 55°59' E 016°18'9 9.2
2014-Aug-20 15:34N 55°59' E 016°01'9 9.5
2014-Aug-20 14:34N 55°60' E 015°44'1010.0
2014-Aug-20 13:34N 56°02' E 015°27'10 9.9
2014-Aug-20 12:34N 56°04' E 015°10'  

Dump ship's entire track history